Time;durP1;ratioP1;P1;durP2;ratioP2;P2;SDS_P1;SDS_P2;PMS_P1;PMS_P2;Temp;Humidity;BMP_temperature;BMP_pressure;BME280_temperature;BME280_humidity;BME280_pressure;Samples;Min_cycle;Max_cycle;Signal;HPM_P1;HPM_P2
2022/08/28 00:02:06;;;;;;;53.35;30.35;;;;;;;20.50;100.00;100621.03;5072184;28;20056;-83
2022/08/28 00:04:39;;;;;;;44.00;29.40;;;;;;;20.19;100.00;100622.22;5073270;28;20049;-83
2022/08/28 00:07:06;;;;;;;49.53;33.30;;;;;;;20.17;100.00;100629.75;5072594;28;20045;-80
2022/08/28 00:09:33;;;;;;;43.65;34.63;;;;;;;20.10;100.00;100633.53;5071955;28;20063;-82
2022/08/28 00:12:01;;;;;;;40.38;31.10;;;;;;;20.25;100.00;100629.22;5072405;28;20036;-83
2022/08/28 00:14:28;;;;;;;57.67;32.42;;;;;;;20.22;100.00;100637.84;5063273;28;20048;-80
2022/08/28 00:16:55;;;;;;;46.83;30.88;;;;;;;20.28;100.00;100634.84;5068918;28;20048;-80
2022/08/28 00:19:24;;;;;;;43.15;29.77;;;;;;;19.65;100.00;100645.13;5070917;28;20900;-80
2022/08/28 00:21:51;;;;;;;50.13;30.00;;;;;;;20.28;100.00;100642.16;5072559;28;20048;-80
2022/08/28 00:24:20;;;;;;;48.50;31.10;;;;;;;20.34;100.00;100639.16;5070961;28;20048;-83
2022/08/28 00:29:33;;;;;;;44.17;29.02;;;;;;;20.12;100.00;100660.22;5065071;28;20056;-82
2022/08/28 00:32:00;;;;;;;50.25;32.28;;;;;;;20.44;100.00;100643.72;5076611;28;20072;-84
2022/08/28 00:34:29;;;;;;;49.53;31.77;;;;;;;20.19;100.00;100646.47;5076241;28;20480;-80
2022/08/28 00:36:56;;;;;;;53.35;31.80;;;;;;;19.42;100.00;100654.47;5076565;28;20053;-80
2022/08/28 00:39:26;;;;;;;44.70;31.65;;;;;;;20.24;100.00;100651.84;5076598;28;20056;-83
2022/08/28 00:41:53;;;;;;;50.45;31.77;;;;;;;19.99;100.00;100647.28;5075501;28;20052;-80
2022/08/28 00:44:22;;;;;;;45.47;36.22;;;;;;;20.11;100.00;100651.31;5076194;28;20465;-80
2022/08/28 00:46:53;;;;;;;50.92;32.88;;;;;;;19.53;100.00;100653.44;5073117;28;20546;-83
2022/08/28 00:49:24;;;;;;;50.58;31.90;;;;;;;20.01;100.00;100662.13;5074017;28;20052;-80
2022/08/28 00:52:07;;;;;;;66.38;48.83;;;;;;;19.56;100.00;100655.59;5075224;28;20051;-80
2022/08/28 00:54:38;;;;;;;43.53;31.67;;;;;;;19.65;100.00;100655.91;5075229;28;20139;-80
2022/08/28 00:57:10;;;;;;;46.58;31.80;;;;;;;19.61;100.00;100657.50;5076447;28;20098;-84
2022/08/28 00:59:37;;;;;;;48.13;31.95;;;;;;;19.89;100.00;100648.91;5076348;28;20056;-80
2022/08/28 01:02:07;;;;;;;48.40;33.67;;;;;;;19.20;100.00;100654.69;5075433;28;20045;-84
2022/08/28 01:04:36;;;;;;;47.70;32.42;;;;;;;19.55;100.00;100653.97;5074541;28;20083;-83
2022/08/28 01:07:08;;;;;;;47.95;31.95;;;;;;;19.50;100.00;100653.16;5074208;28;20138;-81
2022/08/28 01:09:39;;;;;;;46.90;33.72;;;;;;;19.59;100.00;100649.66;5075326;28;20059;-80
2022/08/28 01:12:19;;;;;;;42.50;32.53;;;;;;;19.59;100.00;100656.94;5073731;28;20052;-83
2022/08/28 01:14:49;;;;;;;48.35;31.13;;;;;;;19.35;100.00;100660.13;5073731;28;20571;-80
2022/08/28 01:17:19;;;;;;;51.70;31.60;;;;;;;19.38;100.00;100661.47;5075935;28;20055;-80
2022/08/28 01:19:55;;;;;;;46.33;31.80;;;;;;;19.47;100.00;100656.38;5074989;28;20048;-80
2022/08/28 01:22:29;;;;;;;48.03;32.00;;;;;;;19.35;100.00;100662.00;5075574;28;20055;-80
2022/08/28 01:25:00;;;;;;;40.42;30.77;;;;;;;18.57;100.00;100662.72;5075089;28;20048;-79
2022/08/28 01:27:28;;;;;;;45.20;31.90;;;;;;;19.12;100.00;100668.66;5073030;28;20136;-83
2022/08/28 01:29:56;;;;;;;66.90;35.30;;;;;;;19.31;100.00;100667.13;5075518;28;20121;-80
2022/08/28 01:32:34;;;;;;;50.47;31.60;;;;;;;19.47;100.00;100667.97;5075935;28;20048;-80
2022/08/28 01:35:05;;;;;;;50.08;32.30;;;;;;;18.76;100.00;100665.84;5071794;28;20049;-84
2022/08/28 01:37:38;;;;;;;46.58;32.58;;;;;;;19.20;100.00;100666.25;5064475;28;20080;-83
2022/08/28 01:40:12;;;;;;;45.97;33.85;;;;;;;19.53;100.00;100666.88;5073900;28;20051;-83
2022/08/28 01:42:39;;;;;;;48.20;33.97;;;;;;;19.29;100.00;100669.25;5075461;28;20169;-79
2022/08/28 01:45:11;;;;;;;46.05;30.25;;;;;;;18.39;100.00;100668.53;5064771;28;20105;-83
2022/08/28 01:47:38;;;;;;;48.08;34.28;;;;;;;19.11;100.00;100658.97;5073270;28;20555;-80
2022/08/28 01:50:07;;;;;;;44.17;35.92;;;;;;;19.15;100.00;100660.88;5072493;28;20400;-80
2022/08/28 01:52:38;;;;;;;54.13;34.67;;;;;;;18.91;100.00;100659.69;5074690;28;20053;-83
2022/08/28 01:55:13;;;;;;;52.08;34.88;;;;;;;18.19;100.00;100664.63;5074359;28;20036;-83
2022/08/28 01:57:45;;;;;;;47.15;33.35;;;;;;;18.40;100.00;100667.47;5075385;28;20048;-80
2022/08/28 02:02:50;;;;;;;43.97;33.25;;;;;;;18.88;100.00;100652.13;5102915;22;20127;-81
2022/08/28 02:05:18;;;;;;;60.00;35.47;;;;;;;18.74;100.00;100652.63;5070138;28;20468;-81
2022/08/28 02:07:45;;;;;;;49.95;36.42;;;;;;;18.86;100.00;100654.31;5075440;28;20075;-82
2022/08/28 02:10:16;;;;;;;58.25;35.65;;;;;;;18.88;100.00;100652.13;5076026;28;20455;-84
2022/08/28 02:12:43;;;;;;;64.53;38.42;;;;;;;18.71;100.00;100650.44;5094122;28;20056;-81
2022/08/28 02:15:11;;;;;;;57.92;36.97;;;;;;;18.71;100.00;100655.81;5081942;28;20484;-84
2022/08/28 02:17:39;;;;;;;50.63;37.08;;;;;;;18.87;100.00;100654.03;5078374;28;20491;-81
2022/08/28 02:20:07;;;;;;;52.92;41.03;;;;;;;18.46;100.00;100655.69;5081999;28;20439;-83
2022/08/28 02:22:40;;;;;;;74.68;58.67;;;;;;;18.77;100.00;100657.47;5075730;28;20036;-83
2022/08/28 02:25:10;;;;;;;108.43;73.55;;;;;;;18.61;100.00;100665.69;5074994;28;20055;-83
2022/08/28 02:27:39;;;;;;;110.97;73.35;;;;;;;17.91;100.00;100664.94;5078972;28;20056;-80
2022/08/28 02:30:10;;;;;;;82.07;66.85;;;;;;;18.41;100.00;100661.00;5078546;28;20048;-79
2022/08/28 02:32:40;;;;;;;75.85;59.63;;;;;;;18.37;100.00;100666.09;5086900;28;20076;-80
2022/08/28 02:35:11;;;;;;;75.05;53.92;;;;;;;18.60;100.00;100664.06;5080015;28;20051;-80
2022/08/28 02:37:43;;;;;;;66.00;45.15;;;;;;;18.62;100.00;100673.50;5077944;28;20439;-79
2022/08/28 02:40:14;;;;;;;65.10;40.63;;;;;;;18.86;100.00;100660.50;5066370;28;20045;-80
2022/08/28 02:42:44;;;;;;;59.65;36.63;;;;;;;18.19;100.00;100670.00;5074689;28;20525;-80
2022/08/28 02:45:13;;;;;;;49.92;35.28;;;;;;;18.57;100.00;100673.47;5077480;28;20036;-80
2022/08/28 02:47:44;;;;;;;55.40;34.67;;;;;;;18.62;100.00;100670.03;5068918;28;20041;-85
2022/08/28 02:50:16;;;;;;;57.75;33.35;;;;;;;18.25;100.00;100673.56;5071761;28;20068;-85
2022/08/28 02:52:46;;;;;;;47.03;32.30;;;;;;;18.18;100.00;100673.75;5067404;28;20045;-83
2022/08/28 02:55:16;;;;;;;52.75;35.75;;;;;;;18.63;100.00;100683.19;5069729;28;20052;-84
2022/08/28 02:57:46;;;;;;;57.00;34.63;;;;;;;18.54;100.00;100680.19;5072792;28;20416;-81
2022/08/28 03:00:32;;;;;;;42.13;32.90;;;;;;;18.90;100.00;100685.78;5071875;28;20083;-86
2022/08/28 03:03:03;;;;;;;49.70;30.63;;;;;;;18.68;100.00;100685.91;5045136;28;20045;-80
2022/08/28 03:05:35;;;;;;;61.85;32.55;;;;;;;18.91;100.00;100690.13;5036866;28;20111;-84
2022/08/28 03:08:11;;;;;;;47.05;34.92;;;;;;;18.74;100.00;100695.66;5032280;28;20065;-84
2022/08/28 03:10:44;;;;;;;45.60;35.25;;;;;;;18.66;100.00;100689.94;5045287;28;20049;-81
2022/08/28 03:13:12;;;;;;;43.53;33.08;;;;;;;18.88;100.00;100692.50;5041303;28;20048;-83
2022/08/28 03:15:42;;;;;;;46.83;31.95;;;;;;;18.99;100.00;100688.78;5033146;28;20038;-81
2022/08/28 03:18:11;;;;;;;43.63;31.83;;;;;;;18.81;100.00;100700.00;5034613;28;20045;-83
2022/08/28 03:20:41;;;;;;;52.83;32.05;;;;;;;19.09;100.00;100696.09;5038716;28;20045;-80
2022/08/28 03:23:29;;;;;;;42.80;30.88;;;;;;;18.99;100.00;100707.63;5033509;28;20064;-83
2022/08/28 03:26:02;;;;;;;47.55;30.35;;;;;;;19.21;100.00;100697.50;5041431;28;20060;-86
2022/08/28 03:28:38;;;;;;;52.42;31.92;;;;;;;19.18;100.00;100705.28;5037863;28;20056;-85
2022/08/28 03:31:06;;;;;;;53.20;30.80;;;;;;;19.00;100.00;100701.16;5035144;28;20057;-83
2022/08/28 03:33:33;;;;;;;43.58;29.77;;;;;;;18.74;100.00;100703.75;5030925;28;20049;-83
2022/08/28 03:36:01;;;;;;;46.63;33.40;;;;;;;18.96;100.00;100702.78;5036816;28;20052;-80
2022/08/28 03:38:28;;;;;;;51.90;30.38;;;;;;;19.12;100.00;100700.97;5029649;28;20057;-80
2022/08/28 03:40:55;;;;;;;49.10;31.00;;;;;;;19.35;100.00;100707.78;5029522;28;20041;-84
2022/08/28 03:43:24;;;;;;;45.05;30.88;;;;;;;19.04;100.00;100701.47;5032181;28;20045;-84
2022/08/28 03:45:56;;;;;;;55.88;29.30;;;;;;;19.13;100.00;100700.72;5026717;28;20466;-81
2022/08/28 03:48:24;;;;;;;56.60;32.70;;;;;;;19.13;100.00;100705.28;5033642;28;20037;-80
2022/08/28 03:50:56;;;;;;;47.22;31.50;;;;;;;18.89;100.00;100713.78;5036914;28;20049;-83
2022/08/28 03:53:25;;;;;;;55.35;30.45;;;;;;;19.31;100.00;100704.00;5032900;28;20125;-85
2022/08/28 03:55:53;;;;;;;53.80;29.58;;;;;;;19.43;100.00;100708.09;5031687;28;20068;-83
2022/08/28 03:58:20;;;;;;;55.83;30.25;;;;;;;19.49;100.00;100717.00;5032178;28;20042;-82
2022/08/28 04:00:54;;;;;;;60.08;28.50;;;;;;;19.54;100.00;100708.91;5034576;28;20228;-83
2022/08/28 04:03:21;;;;;;;48.47;29.00;;;;;;;19.41;100.00;100712.91;5070344;28;20099;-82
2022/08/28 04:05:55;;;;;;;49.38;29.23;;;;;;;19.09;100.00;100709.56;5071968;28;20484;-83
2022/08/28 04:08:28;;;;;;;50.55;27.90;;;;;;;18.97;100.00;100715.97;5077407;28;20048;-79
2022/08/28 04:11:00;;;;;;;56.55;30.17;;;;;;;19.99;100.00;100726.25;5072160;28;20076;-83
2022/08/28 04:13:30;;;;;;;36.97;28.13;;;;;;;24.49;100.00;100713.72;5070392;28;20064;-82
2022/08/28 04:16:01;;;;;;;37.13;26.80;;;;;;;26.05;100.00;100707.16;5075148;28;20064;-83
2022/08/28 04:18:30;;;;;;;32.53;27.73;;;;;;;26.84;100.00;100703.75;5078246;28;20051;-81
2022/08/28 04:21:02;;;;;;;40.92;27.55;;;;;;;27.34;100.00;100705.31;5074386;28;20118;-82
2022/08/28 04:23:35;;;;;;;50.50;29.20;;;;;;;27.73;100.00;100709.03;5084689;28;20479;-83
2022/08/28 04:26:04;;;;;;;44.90;28.25;;;;;;;27.84;100.00;100707.63;5081658;28;20046;-82
2022/08/28 04:28:36;;;;;;;40.58;27.42;;;;;;;24.79;100.00;100717.75;5073037;28;20098;-84
2022/08/28 04:31:10;;;;;;;49.42;29.88;;;;;;;20.95;100.00;100727.28;5074725;28;20055;-85
2022/08/28 04:33:41;;;;;;;43.17;27.95;;;;;;;20.19;100.00;100730.06;5067064;28;20052;-83
2022/08/28 04:36:16;;;;;;;56.25;28.75;;;;;;;20.08;100.00;100732.72;5077386;28;20048;-81
2022/08/28 04:38:46;;;;;;;49.40;28.92;;;;;;;20.34;100.00;100730.06;5079663;28;20052;-81
2022/08/28 04:41:19;;;;;;;47.20;28.73;;;;;;;20.44;100.00;100738.13;5073333;28;20091;-85
2022/08/28 04:43:46;;;;;;;53.95;29.20;;;;;;;20.23;100.00;100731.94;5065775;28;20037;-81
2022/08/28 04:46:21;;;;;;;55.10;29.40;;;;;;;20.42;100.00;100734.09;5077018;28;20126;-83
2022/08/28 04:48:50;;;;;;;45.13;27.30;;;;;;;20.10;100.00;100727.09;5074520;28;20049;-83
2022/08/28 04:51:19;;;;;;;47.88;30.60;;;;;;;20.09;100.00;100728.97;5073864;28;20546;-81
2022/08/28 04:53:48;;;;;;;56.88;29.10;;;;;;;20.42;100.00;100739.47;5071784;28;20052;-81
2022/08/28 04:56:19;;;;;;;49.38;29.55;;;;;;;20.51;100.00;100732.44;5070951;28;20082;-83
2022/08/28 04:58:51;;;;;;;52.67;30.60;;;;;;;20.50;100.00;100726.25;5069466;28;20041;-80
2022/08/28 05:01:27;;;;;;;59.25;30.77;;;;;;;20.72;100.00;100731.38;5068294;28;20118;-81
2022/08/28 05:03:59;;;;;;;45.38;30.80;;;;;;;20.88;100.00;100737.56;5072203;28;20444;-80
2022/08/28 05:06:35;;;;;;;53.45;31.67;;;;;;;21.01;100.00;100745.06;5067316;28;20052;-83
2022/08/28 05:09:03;;;;;;;44.40;29.02;;;;;;;21.02;100.00;100735.06;5066190;28;20140;-86
2022/08/28 05:11:31;;;;;;;42.60;27.33;;;;;;;21.13;100.00;100746.66;5071167;28;20519;-84
2022/08/28 05:14:00;;;;;;;38.55;25.80;;;;;;;21.29;100.00;100737.41;5071011;28;20049;-83
2022/08/28 05:16:31;;;;;;;43.58;28.75;;;;;;;21.48;100.00;100741.16;5073936;28;20040;-80
2022/08/28 05:19:00;;;;;;;42.35;26.15;;;;;;;21.66;100.00;100746.97;5079741;28;20044;-81
2022/08/28 05:21:30;;;;;;;58.38;28.08;;;;;;;24.40;100.00;100735.28;5074750;28;20045;-81
2022/08/28 05:24:00;;;;;;;44.00;27.10;;;;;;;25.81;100.00;100738.22;5074843;28;20048;-83
2022/08/28 05:26:37;;;;;;;44.28;26.38;;;;;;;23.64;100.00;100742.69;5077915;28;20072;-80
2022/08/28 05:29:05;;;;;;;66.47;28.67;;;;;;;22.69;100.00;100747.00;5075751;28;20044;-84
2022/08/28 05:31:37;;;;;;;46.00;26.80;;;;;;;22.59;100.00;100747.94;5080631;28;20416;-82
2022/08/28 05:34:05;;;;;;;43.63;27.52;;;;;;;22.40;100.00;100747.84;5083549;28;20056;-81
2022/08/28 05:36:33;;;;;;;48.30;28.05;;;;;;;22.55;100.00;100746.91;5075256;28;20484;-81
2022/08/28 05:39:01;;;;;;;52.95;28.55;;;;;;;22.48;100.00;100743.69;5082677;28;20056;-80
2022/08/28 05:41:32;;;;;;;42.90;26.60;;;;;;;22.49;100.00;100753.44;5076489;28;20067;-85
2022/08/28 05:44:00;;;;;;;46.15;25.73;;;;;;;22.74;100.00;100750.47;5077091;28;20452;-83
2022/08/28 05:46:31;;;;;;;55.05;25.88;;;;;;;23.05;100.00;100755.59;5072726;28;20058;-81
2022/08/28 05:49:00;;;;;;;48.22;26.98;;;;;;;25.77;100.00;100744.53;5082872;28;20059;-85
2022/08/28 05:51:33;;;;;;;43.80;27.05;;;;;;;24.93;100.00;100751.16;5066887;28;20048;-81
2022/08/28 05:54:06;;;;;;;44.28;26.80;;;;;;;26.75;100.00;100746.50;5075939;28;20556;-80
2022/08/28 05:56:39;;;;;;;35.72;26.35;;;;;;;27.34;100.00;100744.28;5075627;28;20045;-80
2022/08/28 05:59:14;;;;;;;75.35;44.63;;;;;;;27.43;100.00;100744.31;5075786;28;20040;-83
2022/08/28 06:01:50;;;;;;;52.47;32.85;;;;;;;27.82;100.00;100748.06;5077508;28;20051;-81
2022/08/28 06:04:23;;;;;;;57.75;29.13;;;;;;;25.35;100.00;100749.25;5080546;28;20044;-84
2022/08/28 06:06:54;;;;;;;40.42;27.40;;;;;;;24.74;100.00;100751.25;5079132;28;20123;-84
2022/08/28 06:09:28;;;;;;;43.10;27.67;;;;;;;24.76;100.00;100745.53;5073343;28;20044;-85
2022/08/28 06:11:55;;;;;;;56.03;28.42;;;;;;;24.60;100.00;100744.97;5078914;28;20400;-80
2022/08/28 06:14:24;;;;;;;55.63;28.17;;;;;;;24.81;100.00;100743.53;5074089;28;20040;-81
2022/08/28 06:16:53;;;;;;;45.38;27.38;;;;;;;24.92;100.00;100744.13;5081726;28;20064;-85
2022/08/28 06:19:27;;;;;;;53.67;28.42;;;;;;;25.07;100.00;100754.69;5072813;28;20131;-85
2022/08/28 06:21:57;;;;;;;39.15;28.08;;;;;;;25.22;100.00;100756.31;5084382;28;20393;-83
2022/08/28 06:24:25;;;;;;;37.42;26.20;;;;;;;25.38;100.00;100764.94;5081978;28;20476;-82
2022/08/28 06:26:57;;;;;;;62.92;31.08;;;;;;;25.76;100.00;100754.59;5069182;28;20132;-83
2022/08/28 06:29:28;;;;;;;50.60;28.90;;;;;;;25.71;100.00;100759.34;5077503;28;20451;-83
2022/08/28 06:31:56;;;;;;;52.22;28.52;;;;;;;25.77;100.00;100747.25;5075399;28;20040;-80
2022/08/28 06:34:26;;;;;;;44.67;27.77;;;;;;;26.19;100.00;100747.91;5075569;28;20080;-81
2022/08/28 06:37:00;;;;;;;47.28;28.17;;;;;;;26.52;100.00;100759.34;5078488;28;20052;-85
2022/08/28 06:39:27;;;;;;;57.70;28.05;;;;;;;26.83;100.00;100750.38;5074003;28;20053;-81
2022/08/28 06:41:54;;;;;;;43.75;27.95;;;;;;;26.73;100.00;100749.53;5077027;28;20048;-82
2022/08/28 06:44:23;;;;;;;54.60;28.60;;;;;;;27.10;100.00;100752.88;5080336;28;20048;-82
2022/08/28 06:46:53;;;;;;;41.80;27.73;;;;;;;27.25;100.00;100761.75;5075288;28;20056;-81
2022/08/28 06:49:20;;;;;;;46.88;28.50;;;;;;;27.20;100.00;100757.25;5076432;28;20123;-85
2022/08/28 06:51:55;;;;;;;58.72;28.60;;;;;;;27.38;100.00;100755.38;5079051;28;20056;-84
2022/08/28 06:54:24;;;;;;;43.25;26.95;;;;;;;27.50;100.00;100752.81;5074494;28;20086;-81
2022/08/28 06:56:52;;;;;;;50.58;28.73;;;;;;;27.70;100.00;100756.06;5072940;28;20420;-84
2022/08/28 06:59:26;;;;;;;50.72;27.30;;;;;;;27.92;100.00;100753.19;5076288;28;20048;-84
2022/08/28 07:01:54;;;;;;;53.10;28.70;;;;;;;28.17;98.14;100745.28;5075231;28;20105;-82
2022/08/28 07:04:21;;;;;;;47.83;26.75;;;;;;;28.47;100.00;100749.78;5085845;28;20047;-84
2022/08/28 07:06:50;;;;;;;43.13;25.70;;;;;;;28.67;100.00;100753.72;5074116;28;20044;-85
2022/08/28 07:09:18;;;;;;;52.50;27.10;;;;;;;28.73;96.57;100757.06;5072174;28;20462;-81
2022/08/28 07:11:54;;;;;;;48.95;28.70;;;;;;;28.83;94.63;100759.44;5071951;28;20056;-83
2022/08/28 07:14:25;;;;;;;48.78;30.10;;;;;;;28.80;92.57;100757.34;5077089;28;20046;-83
2022/08/28 07:16:55;;;;;;;52.97;29.35;;;;;;;28.90;93.07;100758.94;5080629;28;20539;-84
2022/08/28 07:19:22;;;;;;;42.78;27.30;;;;;;;29.14;92.75;100756.44;5079976;28;20051;-82
2022/08/28 07:21:51;;;;;;;43.65;27.27;;;;;;;29.41;91.67;100751.59;5077637;28;20053;-82
2022/08/28 07:24:22;;;;;;;42.65;27.65;;;;;;;29.54;93.69;100760.69;5072615;28;20109;-86
2022/08/28 07:26:53;;;;;;;55.22;26.40;;;;;;;29.73;87.71;100755.56;5073342;28;20087;-83
2022/08/28 07:29:21;;;;;;;45.90;29.23;;;;;;;30.08;94.41;100747.06;5073811;28;20090;-82
2022/08/28 07:31:51;;;;;;;48.25;28.20;;;;;;;30.02;90.31;100745.69;5069544;28;20508;-82
2022/08/28 07:34:22;;;;;;;47.72;27.05;;;;;;;30.08;82.91;100745.13;5075092;28;20056;-84
2022/08/28 07:36:53;;;;;;;55.67;27.97;;;;;;;30.35;81.51;100742.97;5069367;28;20111;-85
2022/08/28 07:39:22;;;;;;;52.30;27.85;;;;;;;30.49;77.65;100739.88;5071591;28;20036;-82
2022/08/28 07:41:50;;;;;;;45.58;28.15;;;;;;;30.74;84.18;100748.94;5068162;28;20056;-82
2022/08/28 07:47:05;;;;;;;41.72;27.00;;;;;;;30.74;79.91;100744.25;5079589;28;20544;-79
2022/08/28 07:49:34;;;;;;;39.42;28.40;;;;;;;30.47;80.08;100734.75;5075288;28;20114;-79
2022/08/28 07:52:01;;;;;;;41.60;29.30;;;;;;;30.75;78.20;100734.91;5084483;28;20063;-79
2022/08/28 07:54:31;;;;;;;41.13;29.00;;;;;;;31.18;79.33;100735.47;5078224;28;20110;-85
2022/08/28 07:56:58;;;;;;;43.78;28.38;;;;;;;31.48;73.33;100739.56;5074321;28;20059;-84
2022/08/28 07:59:25;;;;;;;50.67;27.80;;;;;;;31.41;69.67;100738.56;5073334;28;20055;-79
2022/08/28 08:01:51;;;;;;;46.88;27.50;;;;;;;31.94;63.19;100733.81;5074024;28;20048;-83
2022/08/28 08:04:20;;;;;;;57.05;28.42;;;;;;;31.43;63.71;100739.78;5083255;28;20041;-79
2022/08/28 08:06:49;;;;;;;47.42;28.73;;;;;;;31.20;71.56;100735.94;5074366;28;20048;-85
2022/08/28 08:09:18;;;;;;;44.85;28.52;;;;;;;31.24;66.66;100728.59;5070773;28;20111;-84
2022/08/28 08:11:47;;;;;;;49.60;29.50;;;;;;;31.46;65.99;100728.13;5071168;28;20053;-84
2022/08/28 08:14:15;;;;;;;37.15;28.15;;;;;;;31.60;60.58;100732.44;5075534;28;20049;-82
2022/08/28 08:16:45;;;;;;;39.45;25.92;;;;;;;31.23;58.20;100732.50;5065725;28;20048;-83
2022/08/28 08:19:13;;;;;;;46.70;26.88;;;;;;;30.93;61.52;100735.50;5072069;28;20051;-82
2022/08/28 08:21:49;;;;;;;36.50;27.45;;;;;;;30.95;67.51;100733.19;5066149;28;20049;-83
2022/08/28 08:24:19;;;;;;;44.38;28.10;;;;;;;30.86;59.54;100735.25;5064834;28;20472;-79
2022/08/28 08:26:48;;;;;;;43.83;28.63;;;;;;;31.16;56.26;100735.81;5063801;28;20049;-82
2022/08/28 08:29:17;;;;;;;53.40;28.95;;;;;;;31.20;66.62;100736.72;5070533;28;20044;-84
2022/08/28 08:31:44;;;;;;;42.90;30.35;;;;;;;31.64;62.78;100730.59;5067572;28;20044;-82
2022/08/28 08:34:11;;;;;;;44.22;28.45;;;;;;;31.40;52.03;100736.94;5075748;28;20044;-83
2022/08/28 08:36:41;;;;;;;40.85;28.38;;;;;;;31.34;63.28;100741.88;5076028;28;20063;-83
2022/08/28 08:39:19;;;;;;;40.97;27.05;;;;;;;31.75;61.13;100731.69;5072223;28;20052;-80
2022/08/28 08:42:02;;;;;;;54.78;28.60;;;;;;;31.44;65.33;100732.38;5071733;28;20178;-82
2022/08/28 08:44:49;;;;;;;38.22;28.08;;;;;;;31.30;65.64;100734.66;5018966;28;20056;-81
2022/08/28 08:47:40;;;;;;;39.85;28.25;;;;;;;30.83;70.38;100735.16;5069346;28;20048;-84
2022/08/28 08:50:19;;;;;;;45.65;29.52;;;;;;;30.75;65.65;100728.63;5060839;28;20045;-80
2022/08/28 08:59:14;;;;;;;47.92;27.58;;;;;;;32.50;51.13;100720.03;5077825;28;20072;-83
2022/08/28 09:01:49;;;;;;;46.17;29.50;;;;;;;33.04;49.44;100724.88;5071795;28;20076;-82
2022/08/28 09:04:28;;;;;;;49.60;29.10;;;;;;;32.33;50.13;100726.63;5077847;28;20036;-83
2022/08/28 09:07:09;;;;;;;35.63;26.77;;;;;;;32.06;54.95;100732.97;5074840;28;20086;-78
2022/08/28 09:09:40;;;;;;;57.28;27.83;;;;;;;32.88;45.45;100726.03;5076427;28;20080;-80
2022/08/28 09:12:13;;;;;;;42.58;26.98;;;;;;;32.52;54.09;100722.41;5073522;28;20044;-81
2022/08/28 09:14:49;;;;;;;49.15;28.10;;;;;;;33.21;41.55;100722.88;5081342;28;20041;-81
2022/08/28 09:17:20;;;;;;;35.00;28.27;;;;;;;32.88;51.53;100715.03;5077558;28;20036;-79
2022/08/28 09:19:47;;;;;;;42.20;28.67;;;;;;;32.48;55.41;100725.06;5069941;28;20044;-81
2022/08/28 09:22:15;;;;;;;46.53;31.05;;;;;;;32.46;47.46;100715.56;5076276;28;20147;-84
2022/08/28 09:24:44;;;;;;;38.67;29.30;;;;;;;33.31;42.31;100727.81;5076046;28;20048;-84
2022/08/28 09:27:24;;;;;;;43.40;28.40;;;;;;;33.38;40.00;100721.69;5066139;28;20472;-85
2022/08/28 09:29:57;;;;;;;52.10;29.65;;;;;;;33.79;41.07;100722.94;5075657;28;20090;-85
2022/08/28 09:32:31;;;;;;;46.25;27.05;;;;;;;33.81;41.83;100720.63;5079122;28;20047;-81
2022/08/28 09:35:24;;;;;;;38.97;26.85;;;;;;;34.58;34.63;100710.59;5076760;28;20086;-81
2022/08/28 09:37:51;;;;;;;37.67;26.42;;;;;;;34.43;40.55;100718.63;5073808;28;20408;-85
2022/08/28 09:40:23;;;;;;;37.72;27.20;;;;;;;33.80;47.71;100716.28;5071349;28;20055;-81
2022/08/28 09:45:57;;;;;;;42.38;27.00;;;;;;;35.57;39.33;100707.72;5073037;28;20094;-81
2022/08/28 09:48:33;;;;;;;30.02;26.88;;;;;;;34.18;40.34;100712.66;5076174;28;20056;-80
2022/08/28 09:51:03;;;;;;;28.98;25.65;;;;;;;34.03;34.79;100712.78;5074346;28;20049;-82
2022/08/28 09:53:35;;;;;;;30.95;24.98;;;;;;;34.17;34.08;100713.06;5066897;28;20131;-84
2022/08/28 09:56:10;;;;;;;31.15;24.55;;;;;;;33.80;44.00;100715.47;5076868;28;20111;-81
2022/08/28 09:58:40;;;;;;;34.92;26.52;;;;;;;33.36;49.07;100705.50;5070932;28;20075;-84
2022/08/28 10:01:39;;;;;;;27.45;24.60;;;;;;;34.18;32.58;100701.66;5070410;28;20049;-80
2022/08/28 10:04:25;;;;;;;27.38;24.35;;;;;;;34.69;32.24;100695.03;5069017;28;20075;-82
2022/08/28 10:06:55;;;;;;;32.45;23.90;;;;;;;34.93;31.43;100698.53;5074995;28;20055;-81
2022/08/28 10:09:30;;;;;;;31.10;23.77;;;;;;;36.17;30.52;100690.22;5074576;28;20052;-80
2022/08/28 10:12:09;;;;;;;34.95;25.15;;;;;;;35.65;31.54;100694.81;5074506;28;20049;-81
2022/08/28 10:14:48;;;;;;;34.78;28.67;;;;;;;36.22;33.94;100687.09;5075250;28;20047;-81
2022/08/28 10:17:25;;;;;;;29.40;26.15;;;;;;;35.03;33.02;100690.41;5075667;28;20084;-84
2022/08/28 10:20:03;;;;;;;32.35;25.50;;;;;;;34.26;39.07;100693.53;5066591;28;20048;-81
2022/08/28 10:22:40;;;;;;;29.17;22.38;;;;;;;35.86;30.66;100681.22;5073589;28;20044;-80
2022/08/28 10:25:25;;;;;;;30.42;23.42;;;;;;;35.83;29.75;100684.75;5064291;28;20075;-81
2022/08/28 10:28:14;;;;;;;34.10;24.35;;;;;;;36.66;31.41;100680.75;5071715;28;20110;-84
2022/08/28 10:30:52;;;;;;;30.35;25.23;;;;;;;37.48;29.16;100680.44;5071634;28;20044;-84
2022/08/28 10:33:35;;;;;;;36.97;24.42;;;;;;;35.77;35.04;100675.22;5082619;28;20064;-83
2022/08/28 10:36:12;;;;;;;31.50;24.38;;;;;;;36.13;30.56;100672.78;5075384;28;20059;-79
2022/08/28 10:38:43;;;;;;;33.25;24.10;;;;;;;37.11;26.82;100670.38;5077213;28;20123;-84
2022/08/28 10:41:16;;;;;;;28.05;23.02;;;;;;;35.76;26.79;100668.06;5071767;28;20045;-81
2022/08/28 10:43:47;;;;;;;35.25;23.45;;;;;;;37.26;27.27;100672.03;5071220;28;20542;-80
2022/08/28 10:46:16;;;;;;;30.70;23.52;;;;;;;37.66;25.34;100663.88;5068013;28;20495;-80
2022/08/28 10:48:48;;;;;;;39.45;24.90;;;;;;;37.77;26.17;100667.47;5076747;28;20109;-83
2022/08/28 10:51:23;;;;;;;29.02;23.40;;;;;;;37.66;27.27;100661.09;5079554;28;20060;-80
2022/08/28 10:53:55;;;;;;;36.83;23.98;;;;;;;35.41;36.21;100674.78;5071352;28;20044;-82
2022/08/28 10:56:25;;;;;;;31.70;23.52;;;;;;;34.52;38.54;100668.72;5074032;28;20098;-80
2022/08/28 10:58:57;;;;;;;29.00;23.27;;;;;;;34.96;32.60;100665.47;5072304;28;20159;-81
2022/08/28 11:01:29;;;;;;;34.00;23.83;;;;;;;34.72;42.20;100665.94;5070700;28;20110;-84
2022/08/28 11:04:19;;;;;;;34.38;24.13;;;;;;;35.73;32.23;100657.78;5068932;28;20055;-86
2022/08/28 11:06:50;;;;;;;30.08;23.92;;;;;;;37.11;28.13;100656.53;5071321;28;20049;-81
2022/08/28 11:09:30;;;;;;;32.55;23.05;;;;;;;37.78;27.26;100652.41;5078958;28;20048;-80
2022/08/28 11:12:00;;;;;;;33.67;23.02;;;;;;;38.18;27.94;100656.03;5081190;28;20052;-82
2022/08/28 11:14:34;;;;;;;28.15;23.90;;;;;;;35.68;34.25;100660.91;5074078;28;20049;-82
2022/08/28 11:17:04;;;;;;;30.00;23.55;;;;;;;37.12;27.85;100660.88;5076095;28;20474;-80
2022/08/28 11:20:03;;;;;;;30.00;25.15;;;;;;;36.12;25.27;100660.94;5073533;28;20067;-84
2022/08/28 11:22:39;;;;;;;28.40;23.05;;;;;;;36.91;25.22;100665.09;5073800;28;20041;-82
2022/08/28 11:25:22;;;;;;;35.22;24.70;;;;;;;38.16;23.59;100661.19;5075906;28;20044;-83
2022/08/28 11:28:17;;;;;;;30.95;24.58;;;;;;;39.02;24.58;100656.34;5075799;28;20044;-83
2022/08/28 11:30:47;;;;;;;27.48;24.60;;;;;;;35.33;38.91;100664.81;5073643;28;20055;-85
2022/08/28 11:33:43;;;;;;;33.50;27.27;;;;;;;35.77;30.70;100656.66;5073870;28;20477;-81
2022/08/28 11:36:11;;;;;;;30.23;25.08;;;;;;;38.08;24.28;100649.31;5075035;28;20796;-81
2022/08/28 11:39:21;;;;;;;35.40;25.88;;;;;;;38.31;25.01;100651.69;5073106;28;20048;-83
2022/08/28 11:42:31;;;;;;;31.95;28.70;;;;;;;38.08;23.24;100649.31;5078961;28;20063;-84
2022/08/28 11:44:59;;;;;;;32.05;28.80;;;;;;;38.77;22.24;100630.63;5074361;28;20040;-85